Ana Sayfa
METAR-TAF:

METAR-TAF

Havaalanları :

Anchorage, Alaska, Amerika Birleşik Devletleri

Enlem: 61-11N, Boylam: 149-58W, yükseklik: 22 m

Güncel hava durumu gözlemi

Rapor saat 23:53 UTC de 12 dakika önce yapıldı.
Rüzgar kuzey/kuzeydoğudan 4 kt
Sıcaklık 10°C
Nem 37%
Basınç 1011 hPa
Görüş mesafesi: 16.1 km
Açık gökyüzü

METAR: PALH 202353Z AUTO 02004KT 10SM CLR 10/M04 A2986 RMK AO2 SLP113 T01001044 10100 20028 58013 TSNO

Saat: 16:05 (00:05 UTC)


TAF: eksik

4.000'den fazla havaalanı için hava durumu gözlemleri ve tahminleri (METAR ve TAF raporları).

Kullanılabilir istasyonlar harita üzerinde sarı ve kırmızı noktalarla gösterilir.

İstasyonun adını görmek için fareyi noktanın üzerinde gezdirin.

Sonrasında hava gözlem ve tahminlerini görmek için tıklayın.

Haritayı değiştirmek için: yaklaştırmak için siyah artı işaretli yeşil düğmeye ve uzaklaştırmak için de eksi işaretli düğmeye hızla tıklayın; bitişik haritalar için yeşil okları kullanın.


METAR-TAF: